Portada
METAR-TAF:

METAR-TAF

Aeroports :

Jamshedpur, Índia

latitud: 22-48-49N, longitud: 086-10-05E, altitud: 146 m

Observació

L'informe es va fer fa 47 minuts, a les 04:00 UTC
Vent calma
Temperatura 31°C
Humitat 75%
Pressió 1006 hPa
Visibilitat: 2000 m
Núvols disperses a una alçada de 10000 ft
boirina

METAR: VEJS 010400Z 00000KT 2000 BR SCT100 31/26 Q1006

Hora: 10:17 (04:47 UTC)

Pronòstic

L'informe es va fer fa 2 hores i 47 minuts, a les 02:00 UTC
Pronòstic vàlid del 01 a les 03 UTC al 01 a les 12 UTC
Vent kt del Nord
Visibilitat: 1500 m
Escasses núvols a una alçada de 10000 ft
boirina
Evolucionant progressivament
l' 01 a les 05 UTC al 01 a les 07 UTC
Visibilitat: 4000 m
Escasses núvols a una alçada de 2000 ft
Núvols disperses a una alçada de 2500 ft
calitja
Evolucionant progressivament
l' 01 a les 08 UTC al 01 a les 10 UTC
Vent 4 kt del Nord-Oest
Visibilitat: 5000 m
calitja

TAF: VEJS 010200Z 0103/0112 00000KT 1500 BR FEW100 BECMG 0105/0107 4000 HZ FEW020 SCT025 BECMG 0108/0110 32004KT 5000 HZ

Observacions i pronòstics meteorològics de més de 4000 aeroports (METAR i TAF).

Les estacions disponibles són els punts grocs i vermells al mapa.

Posi el ratolí al punt desitjat per veure el nom de l'estació.

Feu clic per veure les observacions i els pronòstics meteorològics.

Per canviar el mapa: feu clic els botons verds amb una creu de color negre per apropar; al botó verd amb un guió per allunyar la imatge; o en les fletxes verdes per a mapes adjacents.


METAR-TAF: